createdAt,value
2019-03-16T00:02:01.300Z,97506.45
2019-03-16T00:04:29.686Z,97512.62
2019-03-16T00:06:58.079Z,97513.61
2019-03-16T00:09:26.472Z,97515.28
2019-03-16T00:11:54.985Z,97518.92
2019-03-16T00:14:23.526Z,97526.91
2019-03-16T00:16:51.918Z,97520.73
2019-03-16T00:19:20.314Z,97527.86
2019-03-16T00:21:48.696Z,97531.50
2019-03-16T00:24:17.158Z,97519.88
2019-03-16T00:26:45.566Z,97517.22
2019-03-16T00:29:13.989Z,97507.56
2019-03-16T00:31:42.345Z,97515.55
2019-03-16T00:34:10.738Z,97496.11
2019-03-16T00:36:39.119Z,97503.23
2019-03-16T00:39:08.779Z,97503.23
2019-03-16T00:41:37.189Z,97513.86
2019-03-16T00:44:05.621Z,97502.25
2019-03-16T00:46:34.076Z,97511.20
2019-03-16T00:49:02.501Z,97495.25
2019-03-16T00:51:30.897Z,97464.33
2019-03-16T00:53:59.324Z,97466.14
2019-03-16T00:56:27.719Z,97442.34
2019-03-16T00:58:56.208Z,97395.34
2019-03-16T01:01:24.592Z,97340.49
2019-03-16T01:03:53.016Z,97306.89
2019-03-16T01:06:21.405Z,97288.41
2019-03-16T01:08:49.854Z,97325.63
2019-03-16T01:11:18.264Z,97370.82
2019-03-16T01:13:46.657Z,97374.33
2019-03-16T01:16:15.044Z,97401.05
2019-03-16T01:18:43.432Z,97371.11
2019-03-16T01:21:11.820Z,97363.14
2019-03-16T01:23:40.290Z,97380.89
2019-03-16T01:26:08.775Z,97386.34
2019-03-16T01:28:37.263Z,97371.24
2019-03-16T01:31:05.652Z,97384.66
2019-03-16T01:33:34.046Z,97389.98
2019-03-16T01:36:02.443Z,97375.84
2019-03-16T01:38:30.911Z,97390.97
2019-03-16T01:40:59.305Z,97405.93
2019-03-16T01:43:27.682Z,97416.69
2019-03-16T01:45:56.061Z,97414.16
2019-03-16T01:48:24.453Z,97420.45
2019-03-16T01:50:52.847Z,97429.42
2019-03-16T01:53:21.232Z,97441.72
2019-03-16T01:55:49.617Z,97430.36
2019-03-16T01:58:18.017Z,97433.02
2019-03-16T02:00:46.420Z,97429.67
2019-03-16T02:03:16.296Z,97452.61
2019-03-16T02:05:44.786Z,97450.94
2019-03-16T02:08:13.171Z,97461.56
2019-03-16T02:10:41.566Z,97459.03
2019-03-16T02:13:09.988Z,97471.47
2019-03-16T02:15:38.449Z,97474.12
2019-03-16T02:18:06.856Z,97463.50
2019-03-16T02:20:35.328Z,97458.34
2019-03-16T02:23:03.744Z,97474.12
2019-03-16T02:25:32.132Z,97472.45
2019-03-16T02:28:00.515Z,97469.92
2019-03-16T02:30:29.093Z,97482.39
2019-03-16T02:33:11.646Z,97486.84
2019-03-16T02:35:27.610Z,97484.19
2019-03-16T02:37:55.995Z,97479.73
2019-03-16T02:40:24.441Z,97479.86
2019-03-16T02:42:52.828Z,97490.61
2019-03-16T02:45:21.242Z,97479.98
2019-03-16T02:47:49.634Z,97491.31
2019-03-16T02:50:18.028Z,97501.11
2019-03-16T02:52:49.857Z,97497.60
2019-03-16T02:55:16.534Z,97501.24
2019-03-16T02:57:44.922Z,97496.78
2019-03-16T03:00:14.047Z,97504.88
2019-03-16T03:02:42.461Z,97498.58
2019-03-16T03:05:10.830Z,97492.29
2019-03-16T03:07:39.220Z,97497.73
2019-03-16T03:10:15.534Z,97487.09
2019-03-16T03:12:43.939Z,97488.94
2019-03-16T03:15:13.950Z,97488.94
2019-03-16T03:17:42.362Z,97498.71
2019-03-16T03:20:11.027Z,97491.59
2019-03-16T03:22:39.404Z,97491.59
2019-03-16T03:25:07.852Z,97492.54
2019-03-16T03:27:36.293Z,97508.36
2019-03-16T03:30:07.886Z,97503.17
2019-03-16T03:32:36.359Z,97501.37
2019-03-16T03:35:06.275Z,97501.37
2019-03-16T03:37:34.710Z,97504.88
2019-03-16T03:40:03.303Z,97508.48
2019-03-16T03:42:31.691Z,97515.63
2019-03-16T03:45:00.349Z,97524.42
2019-03-16T03:47:28.763Z,97514.66
2019-03-16T03:49:57.179Z,97550.18
2019-03-16T03:52:25.570Z,97585.70
2019-03-16T03:54:54.002Z,97600.80
2019-03-16T03:57:22.399Z,97584.84
2019-03-16T03:59:50.842Z,97607.91
2019-03-16T04:02:19.211Z,97611.42
2019-03-16T04:04:47.639Z,97604.43
2019-03-16T04:07:19.876Z,97596.46
2019-03-16T04:09:46.140Z,97632.93
2019-03-16T04:12:14.527Z,97632.93
2019-03-16T04:14:42.917Z,97639.09
2019-03-16T04:17:11.315Z,97626.79
2019-03-16T04:19:39.719Z,97616.98
2019-03-16T04:22:08.107Z,97614.33
2019-03-16T04:24:36.493Z,97617.97
2019-03-16T04:27:16.065Z,97625.94
2019-03-16T04:29:35.107Z,97624.95
2019-03-16T04:32:03.495Z,97632.10
2019-03-16T04:34:31.885Z,97629.45
2019-03-16T04:37:00.278Z,97630.39
2019-03-16T04:39:28.664Z,97640.08
2019-03-16T04:41:57.055Z,97640.20
2019-03-16T04:44:25.453Z,97652.50
2019-03-16T04:46:53.859Z,97643.80
2019-03-16T04:49:22.345Z,97656.14
2019-03-16T04:51:50.724Z,97647.31
2019-03-16T04:54:19.199Z,97647.31
2019-03-16T04:56:47.610Z,97654.43
2019-03-16T04:59:16.015Z,97657.09
2019-03-16T05:01:44.497Z,97664.23
2019-03-16T05:04:12.905Z,97667.88
2019-03-16T05:06:41.298Z,97671.34
2019-03-16T05:09:09.717Z,97673.19
2019-03-16T05:11:38.101Z,97681.98
2019-03-16T05:14:06.524Z,97691.91
2019-03-16T05:16:34.916Z,97686.59
2019-03-16T05:19:03.351Z,97690.19
2019-03-16T05:21:31.752Z,97687.69
2019-03-16T05:24:02.778Z,97700.82
2019-03-16T05:26:30.247Z,97709.77
2019-03-16T05:28:58.632Z,97709.77
2019-03-16T05:31:27.020Z,97701.67
2019-03-16T05:33:55.444Z,97710.62
2019-03-16T05:36:23.908Z,97713.16
2019-03-16T05:38:52.334Z,97718.47
2019-03-16T05:41:20.731Z,97729.10
2019-03-16T05:43:49.122Z,97728.13
2019-03-16T05:46:17.514Z,97746.73
2019-03-16T05:48:45.904Z,97747.58
2019-03-16T05:51:14.360Z,97748.41
2019-03-16T05:53:42.748Z,97741.30
2019-03-16T05:56:11.140Z,97745.75
2019-03-16T05:58:39.526Z,97748.41
2019-03-16T06:01:07.920Z,97745.75
2019-03-16T06:03:36.299Z,97749.27
2019-03-16T06:06:04.726Z,97747.44
2019-03-16T06:08:33.086Z,97760.72
2019-03-16T06:11:01.542Z,97769.55
2019-03-16T06:13:29.930Z,97777.40
2019-03-16T06:15:58.455Z,97780.05
2019-03-16T06:18:26.835Z,97788.73
2019-03-16T06:20:55.317Z,97789.47
2019-03-16T06:23:23.788Z,97788.50
2019-03-16T06:25:52.212Z,97793.58
2019-03-16T06:28:20.596Z,97786.31
2019-03-16T06:30:49.020Z,97803.00
2019-03-16T06:33:17.408Z,97795.02
2019-03-16T06:35:45.805Z,97796.70
2019-03-16T06:38:14.195Z,97798.38
2019-03-16T06:40:42.627Z,97800.09
2019-03-16T06:43:11.011Z,97810.61
2019-03-16T06:45:39.498Z,97810.46
2019-03-16T06:48:07.897Z,97817.49
2019-03-16T06:50:36.360Z,97826.41
2019-03-16T06:53:04.756Z,97831.48
2019-03-16T06:55:33.279Z,97837.66
2019-03-16T06:58:01.635Z,97831.48
2019-03-16T07:00:31.688Z,97848.30
2019-03-16T07:03:00.080Z,97844.78
2019-03-16T07:05:38.218Z,97858.07
2019-03-16T07:07:58.611Z,97874.77
2019-03-16T07:10:27.039Z,97860.49
2019-03-16T07:12:55.425Z,97870.03
2019-03-16T07:15:23.834Z,97874.49
2019-03-16T07:17:52.227Z,97876.09
2019-03-16T07:20:20.626Z,97878.75
2019-03-16T07:22:49.013Z,97876.92
2019-03-16T07:25:17.411Z,97894.55
2019-03-16T07:27:45.795Z,97889.23
2019-03-16T07:30:14.823Z,97899.87
2019-03-16T07:32:43.217Z,97899.87
2019-03-16T07:35:11.604Z,97912.22
2019-03-16T07:37:40.001Z,97913.91
2019-03-16T07:40:11.714Z,97925.39
2019-03-16T07:42:40.105Z,97901.59
2019-03-16T07:45:12.545Z,97934.67
2019-03-16T07:47:40.937Z,97942.53
2019-03-16T07:50:13.615Z,97941.33
2019-03-16T07:52:43.646Z,97951.84
2019-03-16T07:55:12.068Z,97951.61
2019-03-16T07:57:41.097Z,97958.37
2019-03-16T08:00:11.333Z,97962.72
2019-03-16T08:02:39.719Z,97967.92
2019-03-16T08:05:18.045Z,97974.10
2019-03-16T08:07:38.295Z,97976.76
2019-03-16T08:10:09.327Z,97982.79
2019-03-16T08:12:37.723Z,97994.28
2019-03-16T08:15:07.952Z,97995.14
2019-03-16T08:17:36.444Z,97989.83
2019-03-16T08:20:06.583Z,97987.98
2019-03-16T08:22:34.967Z,97993.20
2019-03-16T08:25:03.361Z,98013.50
2019-03-16T08:27:31.744Z,98005.52
2019-03-16T08:30:00.131Z,98007.23
2019-03-16T08:32:28.557Z,98011.46
2019-03-16T08:35:00.138Z,98019.09
2019-03-16T08:37:29.580Z,98020.81
2019-03-16T08:39:57.270Z,98026.72
2019-03-16T08:42:25.691Z,98027.58
2019-03-16T08:44:54.125Z,98029.15
2019-03-16T08:47:22.542Z,98031.55
2019-03-16T08:49:50.934Z,98041.36
2019-03-16T08:52:19.383Z,98046.68
2019-03-16T08:54:47.774Z,98047.51
2019-03-16T08:57:16.162Z,98052.00
2019-03-16T08:59:44.570Z,98050.17
2019-03-16T09:02:12.956Z,98062.41
2019-03-16T09:04:41.528Z,98077.28
2019-03-16T09:07:11.973Z,98083.44
2019-03-16T09:09:40.446Z,98065.78
2019-03-16T09:12:08.867Z,98090.48
2019-03-16T09:14:37.282Z,98085.16
2019-03-16T09:17:08.773Z,98086.84
2019-03-16T09:19:35.837Z,98097.48
2019-03-16T09:22:04.268Z,98096.63
2019-03-16T09:24:32.656Z,98105.59
2019-03-16T09:27:01.064Z,98102.06
2019-03-16T09:29:29.454Z,98111.77
2019-03-16T09:31:57.862Z,98112.48
2019-03-16T09:34:26.256Z,98114.91
2019-03-16T09:36:54.672Z,98113.81
2019-03-16T09:39:23.067Z,98116.95
2019-03-16T09:41:51.589Z,98110.30
2019-03-16T09:44:19.990Z,98124.08
2019-03-16T09:46:48.510Z,98107.05
2019-03-16T09:49:16.902Z,98124.47
2019-03-16T09:51:47.020Z,98128.08
2019-03-16T09:54:15.428Z,98141.27
2019-03-16T09:56:46.220Z,98125.30
2019-03-16T09:59:14.607Z,98128.94
2019-03-16T10:01:43.995Z,98131.60
2019-03-16T10:04:12.447Z,98143.11
2019-03-16T10:06:40.838Z,98155.56
2019-03-16T10:09:09.313Z,98147.58
2019-03-16T10:11:37.702Z,98160.89
2019-03-16T10:14:06.092Z,98160.03
2019-03-16T10:16:34.588Z,98164.53
2019-03-16T10:19:02.973Z,98165.36
2019-03-16T10:21:31.391Z,98171.54
2019-03-16T10:23:59.775Z,98173.23
2019-03-16T10:26:28.176Z,98181.95
2019-03-16T10:28:56.557Z,98179.17
2019-03-16T10:31:24.991Z,98189.33
2019-03-16T10:33:53.495Z,98186.55
2019-03-16T10:36:21.908Z,98188.00
2019-03-16T10:38:50.288Z,98193.69
2019-03-16T10:41:18.716Z,98190.67
2019-03-16T10:43:47.111Z,98189.45
2019-03-16T10:46:15.515Z,98187.50
2019-03-16T10:48:43.907Z,98195.48
2019-03-16T10:51:12.547Z,98191.14
2019-03-16T10:53:41.131Z,98188.47
2019-03-16T10:56:09.589Z,98192.00
2019-03-16T10:58:38.005Z,98199.88
2019-03-16T11:01:06.480Z,98216.72
2019-03-16T11:03:34.954Z,98203.48
2019-03-16T11:06:03.342Z,98205.94
2019-03-16T11:08:31.734Z,98211.98
2019-03-16T11:11:00.125Z,98211.98
2019-03-16T11:13:28.667Z,98214.64
2019-03-16T11:15:57.018Z,98217.45
2019-03-16T11:18:25.418Z,98220.23
2019-03-16T11:20:54.129Z,98225.69
2019-03-16T11:23:22.521Z,98231.72
2019-03-16T11:25:50.908Z,98238.77
2019-03-16T11:28:19.307Z,98232.58
2019-03-16T11:30:47.770Z,98237.91
2019-03-16T11:33:17.802Z,98229.92
2019-03-16T11:35:46.190Z,98242.38
2019-03-16T11:38:14.581Z,98235.13
2019-03-16T11:40:42.971Z,98230.16
2019-03-16T11:43:11.415Z,98239.84
2019-03-16T11:45:39.799Z,98238.27
2019-03-16T11:48:08.271Z,98241.28
2019-03-16T11:50:36.661Z,98257.05
2019-03-16T11:53:05.054Z,98254.73
2019-03-16T11:55:33.458Z,98250.33
2019-03-16T11:58:04.564Z,98247.95
2019-03-16T12:00:32.958Z,98252.31
2019-03-16T12:03:01.450Z,98244.52
2019-03-16T12:05:29.845Z,98238.89
2019-03-16T12:07:58.259Z,98243.57
2019-03-16T12:10:26.649Z,98259.46
2019-03-16T12:12:55.074Z,98239.34
2019-03-16T12:15:23.454Z,98252.23
2019-03-16T12:17:51.889Z,98254.70
2019-03-16T12:20:20.272Z,98252.48
2019-03-16T12:22:48.706Z,98248.58
2019-03-16T12:25:17.113Z,98246.46
2019-03-16T12:27:45.537Z,98247.76
2019-03-16T12:30:15.401Z,98242.41
2019-03-16T12:32:45.359Z,98249.40
2019-03-16T12:35:13.745Z,98252.31
2019-03-16T12:37:42.163Z,98251.27
2019-03-16T12:40:15.190Z,98260.41
2019-03-16T12:42:43.586Z,98256.48
2019-03-16T12:45:20.047Z,98269.30
2019-03-16T12:47:47.074Z,98260.77
2019-03-16T12:50:15.468Z,98263.56
2019-03-16T12:52:44.038Z,98271.89
2019-03-16T12:55:12.962Z,98284.81
2019-03-16T12:57:41.395Z,98290.73
2019-03-16T13:00:21.993Z,98288.91
2019-03-16T13:02:50.426Z,98290.67
2019-03-16T13:05:18.810Z,98293.16
2019-03-16T13:07:47.200Z,98304.89
2019-03-16T13:10:16.937Z,98296.66
2019-03-16T13:12:45.343Z,98302.53
2019-03-16T13:15:13.799Z,98297.69
2019-03-16T13:17:42.202Z,98295.68
2019-03-16T13:20:15.189Z,98302.63
2019-03-16T13:22:43.575Z,98299.75
2019-03-16T13:25:12.205Z,98307.30
2019-03-16T13:27:40.622Z,98309.31
2019-03-16T13:30:14.224Z,98309.41
2019-03-16T13:32:42.672Z,98309.16
2019-03-16T13:35:11.047Z,98309.41
2019-03-16T13:37:39.462Z,98299.13
2019-03-16T13:40:11.106Z,98301.19
2019-03-16T13:42:39.546Z,98299.50
2019-03-16T13:45:09.174Z,98299.25
2019-03-16T13:47:37.586Z,98302.63
2019-03-16T13:50:14.310Z,98305.05
2019-03-16T13:52:42.976Z,98298.72
2019-03-16T13:55:11.382Z,98295.35
2019-03-16T13:57:39.806Z,98296.30
2019-03-16T14:00:12.466Z,98305.42
2019-03-16T14:02:41.228Z,98312.97
2019-03-16T14:05:09.612Z,98312.39
2019-03-16T14:07:38.497Z,98317.60
2019-03-16T14:10:10.221Z,98317.20
2019-03-16T14:12:38.651Z,98324.84
2019-03-16T14:15:07.977Z,98327.63
2019-03-16T14:17:36.586Z,98322.05
2019-03-16T14:20:07.688Z,98329.77
2019-03-16T14:22:37.842Z,98327.11
2019-03-16T14:25:08.676Z,98322.50
2019-03-16T14:27:37.124Z,98319.25
2019-03-16T14:30:34.887Z,98324.72
2019-03-16T14:32:47.253Z,98319.38
2019-03-16T14:35:15.650Z,98316.70
2019-03-16T14:37:44.067Z,98315.97
2019-03-16T14:40:13.677Z,98316.50
2019-03-16T14:42:42.134Z,98318.55
2019-03-16T14:45:12.350Z,98329.75
2019-03-16T14:47:40.778Z,98331.11
2019-03-16T14:50:12.542Z,98343.98
2019-03-16T14:52:41.162Z,98337.32
2019-03-16T14:55:09.565Z,98342.16
2019-03-16T14:57:37.964Z,98345.44
2019-03-16T15:00:09.928Z,98348.46
2019-03-16T15:02:38.332Z,98349.83
2019-03-16T15:05:07.380Z,98355.64
2019-03-16T15:07:35.864Z,98353.33
2019-03-16T15:10:07.108Z,98350.19
2019-03-16T15:12:35.576Z,98355.76
2019-03-16T15:15:12.481Z,98348.03
2019-03-16T15:17:40.919Z,98352.62
2019-03-16T15:20:10.530Z,98352.86
2019-03-16T15:22:38.982Z,98359.28
2019-03-16T15:25:11.738Z,98368.25
2019-03-16T15:27:40.238Z,98365.70
2019-03-16T15:30:14.753Z,98359.55
2019-03-16T15:32:43.142Z,98357.83
2019-03-16T15:35:11.680Z,98361.47
2019-03-16T15:37:40.102Z,98372.02
2019-03-16T15:40:12.776Z,98372.99
2019-03-16T15:42:41.183Z,98368.75
2019-03-16T15:45:21.338Z,98360.02
2019-03-16T15:47:49.743Z,98362.80
2019-03-16T15:50:18.149Z,98361.34
2019-03-16T15:52:46.648Z,98362.43
2019-03-16T15:55:15.110Z,98360.97
2019-03-16T15:57:43.515Z,98356.73
2019-03-16T16:00:14.818Z,98355.16
2019-03-16T16:02:43.210Z,98364.36
2019-03-16T16:05:11.673Z,98360.95
2019-03-16T16:07:40.076Z,98375.37
2019-03-16T16:10:17.618Z,98366.77
2019-03-16T16:12:46.062Z,98373.98
2019-03-16T16:15:14.485Z,98375.94
2019-03-16T16:17:42.884Z,98378.83
2019-03-16T16:20:13.655Z,98383.41
2019-03-16T16:22:42.139Z,98377.37
2019-03-16T16:25:13.801Z,98369.48
2019-03-16T16:27:42.214Z,98375.91
2019-03-16T16:30:18.992Z,98371.66
2019-03-16T16:32:47.404Z,98379.77
2019-03-16T16:35:16.363Z,98389.67
2019-03-16T16:37:44.795Z,98387.27
2019-03-16T16:40:17.337Z,98388.20
2019-03-16T16:42:45.711Z,98385.80
2019-03-16T16:45:17.175Z,98384.08
2019-03-16T16:47:45.566Z,98380.70
2019-03-16T16:50:15.804Z,98380.09
2019-03-16T16:52:44.295Z,98382.01
2019-03-16T16:55:12.708Z,98383.09
2019-03-16T16:57:41.131Z,98385.00
2019-03-16T17:00:12.537Z,98395.80
2019-03-16T17:02:40.936Z,98390.69
2019-03-16T17:05:09.332Z,98397.81
2019-03-16T17:07:37.831Z,98399.77
2019-03-16T17:10:12.071Z,98400.81
2019-03-16T17:12:40.547Z,98401.67
2019-03-16T17:15:12.066Z,98400.95
2019-03-16T17:17:40.547Z,98397.43
2019-03-16T17:20:13.458Z,98410.84
2019-03-16T17:22:41.849Z,98420.64
2019-03-16T17:25:11.679Z,98418.94
2019-03-16T17:27:40.072Z,98410.13
2019-03-16T17:30:17.016Z,98424.48
2019-03-16T17:32:45.413Z,98421.97
2019-03-16T17:35:13.898Z,98427.29
2019-03-16T17:37:42.307Z,98433.55
2019-03-16T17:40:12.722Z,98430.17
2019-03-16T17:42:41.148Z,98441.78
2019-03-16T17:45:13.507Z,98435.60
2019-03-16T17:47:41.917Z,98438.37
2019-03-16T17:50:11.664Z,98436.67
2019-03-16T17:52:40.088Z,98436.67
2019-03-16T17:55:13.204Z,98445.63
2019-03-16T17:57:44.900Z,98443.08
2019-03-16T18:00:16.965Z,98444.88
2019-03-16T18:02:51.914Z,98439.55
2019-03-16T18:05:15.750Z,98437.86
2019-03-16T18:07:44.323Z,98462.78
2019-03-16T18:10:13.792Z,98453.08
2019-03-16T18:12:42.276Z,98467.35
2019-03-16T18:15:15.718Z,98465.66
2019-03-16T18:17:44.122Z,98467.45
2019-03-16T18:20:17.132Z,98468.43
2019-03-16T18:22:44.386Z,98475.45
2019-03-16T18:25:13.510Z,98467.56
2019-03-16T18:27:41.906Z,98468.53
2019-03-16T18:30:21.459Z,98449.91
2019-03-16T18:32:49.868Z,98452.67
2019-03-16T18:35:18.400Z,98456.31
2019-03-16T18:37:46.888Z,98457.17
2019-03-16T18:40:16.156Z,98463.97
2019-03-16T18:42:44.624Z,98478.97
2019-03-16T18:45:25.071Z,98472.67
2019-03-16T18:47:53.543Z,98473.30
2019-03-16T18:50:22.018Z,98478.51
2019-03-16T18:52:50.434Z,98476.60
2019-03-16T18:55:18.843Z,98460.95
2019-03-16T18:57:47.264Z,98467.54
2019-03-16T19:00:19.311Z,98475.31
2019-03-16T19:02:47.835Z,98471.89
2019-03-16T19:05:16.466Z,98478.48
2019-03-16T19:07:44.874Z,98489.02
2019-03-16T19:10:17.310Z,98494.13
2019-03-16T19:12:45.719Z,98490.39
2019-03-16T19:15:15.372Z,98498.27
2019-03-16T19:17:43.843Z,98490.14
2019-03-16T19:20:16.205Z,98490.89
2019-03-16T19:22:45.846Z,98490.78
2019-03-16T19:25:19.739Z,98489.81
2019-03-16T19:27:48.157Z,98495.14
2019-03-16T19:30:17.351Z,98484.48
2019-03-16T19:32:45.758Z,98487.04
2019-03-16T19:35:14.185Z,98482.58
2019-03-16T19:37:42.606Z,98492.26
2019-03-16T19:40:15.573Z,98481.50
2019-03-16T19:42:46.471Z,98477.86
2019-03-16T19:45:14.277Z,98486.61
2019-03-16T19:47:42.715Z,98475.81
2019-03-16T19:50:13.463Z,98480.20
2019-03-16T19:52:41.895Z,98483.58
2019-03-16T19:55:11.561Z,98489.88
2019-03-16T19:57:40.052Z,98494.23
2019-03-16T20:00:16.384Z,98496.89
2019-03-16T20:02:50.316Z,98500.31
2019-03-16T20:05:15.035Z,98494.98
2019-03-16T20:07:43.446Z,98498.48
2019-03-16T20:10:14.680Z,98496.57
2019-03-16T20:12:43.083Z,98490.16
2019-03-16T20:15:12.860Z,98499.84
2019-03-16T20:17:41.269Z,98496.35
2019-03-16T20:20:13.865Z,98498.87
2019-03-16T20:22:42.329Z,98491.02
2019-03-16T20:25:11.050Z,98491.02
2019-03-16T20:27:39.452Z,98492.83
2019-03-16T20:30:25.914Z,98493.80
2019-03-16T20:32:50.219Z,98488.58
2019-03-16T20:35:17.141Z,98488.69
2019-03-16T20:37:45.556Z,98490.48
2019-03-16T20:40:17.204Z,98489.77
2019-03-16T20:42:45.605Z,98492.55
2019-03-16T20:45:14.196Z,98495.31
2019-03-16T20:47:42.810Z,98489.12
2019-03-16T20:50:15.631Z,98486.71
2019-03-16T20:52:44.035Z,98485.75
2019-03-16T20:55:12.477Z,98484.05
2019-03-16T20:57:40.889Z,98485.96
2019-03-16T21:00:16.621Z,98499.06
2019-03-16T21:02:45.020Z,98504.27
2019-03-16T21:05:13.440Z,98505.86
2019-03-16T21:07:41.908Z,98502.58
2019-03-16T21:10:11.563Z,98505.36
2019-03-16T21:12:40.535Z,98500.25
2019-03-16T21:15:11.136Z,98496.72
2019-03-16T21:17:39.531Z,98494.42
2019-03-16T21:20:13.204Z,98494.53
2019-03-16T21:22:41.586Z,98491.22
2019-03-16T21:25:11.637Z,98494.95
2019-03-16T21:27:40.040Z,98492.41
2019-03-16T21:30:11.693Z,98495.31
2019-03-16T21:32:40.088Z,98490.20
2019-03-16T21:35:08.554Z,98499.98
2019-03-16T21:37:36.957Z,98501.17
2019-03-16T21:40:07.878Z,98502.25
2019-03-16T21:42:36.283Z,98502.46
2019-03-16T21:45:06.100Z,98510.55
2019-03-16T21:47:34.488Z,98506.30
2019-03-16T21:50:02.947Z,98506.30
2019-03-16T21:52:31.346Z,98503.99
2019-03-16T21:54:59.734Z,98492.59
2019-03-16T21:57:28.271Z,98486.44
2019-03-16T21:59:56.798Z,98488.34
2019-03-16T22:02:25.189Z,98491.00
2019-03-16T22:04:53.679Z,98484.17
2019-03-16T22:07:22.066Z,98488.62
2019-03-16T22:09:50.460Z,98486.94
2019-03-16T22:12:18.849Z,98484.37
2019-03-16T22:14:47.276Z,98475.67
2019-03-16T22:17:15.666Z,98478.44
2019-03-16T22:19:44.058Z,98475.02
2019-03-16T22:22:12.458Z,98478.65
2019-03-16T22:24:40.845Z,98480.59
2019-03-16T22:27:09.268Z,98482.38
2019-03-16T22:29:37.646Z,98477.17
2019-03-16T22:32:06.078Z,98477.17
2019-03-16T22:34:34.459Z,98479.94
2019-03-16T22:37:02.868Z,98488.78
2019-03-16T22:39:31.319Z,98478.24
2019-03-16T22:41:59.734Z,98477.52
2019-03-16T22:44:28.128Z,98482.70
2019-03-16T22:46:56.548Z,98473.12
2019-03-16T22:49:24.938Z,98473.12
2019-03-16T22:51:53.362Z,98466.12
2019-03-16T22:54:21.750Z,98475.06
2019-03-16T22:56:50.157Z,98474.20
2019-03-16T22:59:18.552Z,98477.94
2019-03-16T23:01:47.075Z,98476.13
2019-03-16T23:04:15.456Z,98477.07
2019-03-16T23:06:44.140Z,98472.61
2019-03-16T23:09:12.532Z,98478.90
2019-03-16T23:11:40.949Z,98476.23
2019-03-16T23:14:09.346Z,98473.58
2019-03-16T23:16:37.764Z,98480.70
2019-03-16T23:19:06.148Z,98473.69
2019-03-16T23:21:34.895Z,98474.52
2019-03-16T23:24:03.281Z,98472.82
2019-03-16T23:26:38.314Z,98471.03
2019-03-16T23:29:01.794Z,98469.44
2019-03-16T23:31:30.217Z,98464.84
2019-03-16T23:33:58.664Z,98459.63
2019-03-16T23:36:27.052Z,98463.16
2019-03-16T23:38:55.436Z,98463.16
2019-03-16T23:41:23.828Z,98462.29
2019-03-16T23:43:52.220Z,98460.59
2019-03-16T23:46:20.700Z,98450.82
2019-03-16T23:48:49.098Z,98449.95
2019-03-16T23:51:17.508Z,98450.92
2019-03-16T23:53:45.905Z,98445.61
2019-03-16T23:56:14.318Z,98449.09
2019-03-16T23:58:42.765Z,98443.78
